createdAt,value
2018-05-13T00:05:43.191Z,11.68
2018-05-13T00:11:38.202Z,10.04
2018-05-13T00:17:33.188Z,11.51
2018-05-13T00:23:28.232Z,11.34
2018-05-13T00:29:23.226Z,11.05
2018-05-13T00:35:18.248Z,11.12
2018-05-13T00:41:13.217Z,10.52
2018-05-13T00:47:08.232Z,9.92
2018-05-13T00:53:03.289Z,12.23
2018-05-13T00:58:58.239Z,9.09
2018-05-13T01:04:53.251Z,11.33
2018-05-13T01:10:48.238Z,8.97
2018-05-13T01:16:43.305Z,10.91
2018-05-13T01:22:38.246Z,13.45
2018-05-13T01:28:33.278Z,12.44
2018-05-13T01:34:28.244Z,12.88
2018-05-13T01:40:23.228Z,10.42
2018-05-13T01:46:18.301Z,12.68
2018-05-13T01:52:13.302Z,12.23
2018-05-13T01:58:08.285Z,13.56
2018-05-13T02:04:03.271Z,15.84
2018-05-13T02:09:58.283Z,12.88
2018-05-13T02:15:53.315Z,13.68
2018-05-13T02:21:48.288Z,15.83
2018-05-13T02:27:43.274Z,14.03
2018-05-13T02:33:38.321Z,24.44
2018-05-13T02:39:33.312Z,12.07
2018-05-13T02:45:28.325Z,12.75
2018-05-13T02:51:23.288Z,13.37
2018-05-13T02:57:18.298Z,12.61
2018-05-13T03:03:13.465Z,10.52
2018-05-13T03:09:08.340Z,9.45
2018-05-13T03:15:03.318Z,8.45
2018-05-13T03:20:58.323Z,7.97
2018-05-13T03:26:53.345Z,10.93
2018-05-13T03:32:48.362Z,10.2
2018-05-13T03:38:43.317Z,9.53
2018-05-13T03:44:38.306Z,9.5
2018-05-13T03:50:33.350Z,9.04
2018-05-13T03:56:28.342Z,7.78
2018-05-13T04:02:23.306Z,9.11
2018-05-13T04:08:18.391Z,9.32
2018-05-13T04:14:13.364Z,8.16
2018-05-13T04:20:08.355Z,9.04
2018-05-13T04:26:03.365Z,9.1
2018-05-13T04:31:58.391Z,9.04
2018-05-13T04:37:53.361Z,8.57
2018-05-13T04:43:48.356Z,8.31
2018-05-13T04:49:43.362Z,9.13
2018-05-13T04:55:38.376Z,9.17
2018-05-13T05:01:33.335Z,10.82
2018-05-13T05:07:28.449Z,11.51
2018-05-13T05:13:23.395Z,11.43
2018-05-13T05:19:18.374Z,11.19
2018-05-13T05:25:13.401Z,14.69
2018-05-13T05:31:08.475Z,16.61
2018-05-13T05:37:03.394Z,16.05
2018-05-13T05:42:58.388Z,14.33
2018-05-13T05:48:53.406Z,14.76
2018-05-13T05:54:48.384Z,15.55
2018-05-13T06:00:43.434Z,12.53
2018-05-13T06:06:38.454Z,13.37
2018-05-13T06:12:33.430Z,15.53
2018-05-13T06:18:28.434Z,14.75
2018-05-13T06:24:23.396Z,15.7
2018-05-13T06:30:18.499Z,19.56
2018-05-13T06:36:13.429Z,18.32
2018-05-13T06:42:08.470Z,18.77
2018-05-13T06:48:03.425Z,18.47
2018-05-13T06:53:58.450Z,16.37
2018-05-13T06:59:53.450Z,15.9
2018-05-13T07:05:48.433Z,13.9
2018-05-13T07:11:43.443Z,13.95
2018-05-13T07:17:38.426Z,13.5
2018-05-13T07:23:33.418Z,13.94
2018-05-13T07:29:28.499Z,13.06
2018-05-13T07:35:23.528Z,13.85
2018-05-13T07:41:18.469Z,14.17
2018-05-13T07:47:13.505Z,11.43
2018-05-13T07:53:08.480Z,14.75
2018-05-13T07:59:03.460Z,13.44
2018-05-13T08:04:58.499Z,10.58
2018-05-13T08:10:53.478Z,23.2
2018-05-13T08:16:48.494Z,12.6
2018-05-13T08:22:43.466Z,11.06
2018-05-13T08:28:38.515Z,9
2018-05-13T08:34:33.525Z,10.55
2018-05-13T08:40:28.514Z,11.6
2018-05-13T08:46:23.505Z,10.5
2018-05-13T08:52:18.526Z,10.56
2018-05-13T08:58:13.476Z,10.09
2018-05-13T09:04:08.488Z,10.2
2018-05-13T09:10:03.502Z,7.52
2018-05-13T09:15:58.524Z,8.46
2018-05-13T09:21:53.526Z,8.13
2018-05-13T09:27:48.516Z,7.73
2018-05-13T09:33:43.551Z,6.61
2018-05-13T09:39:38.509Z,11.27
2018-05-13T09:45:33.543Z,6.83
2018-05-13T09:51:28.538Z,7.13
2018-05-13T09:57:23.529Z,7.73
2018-05-13T10:03:18.506Z,7.27
2018-05-13T10:09:13.548Z,7.63
2018-05-13T10:15:08.579Z,8.5
2018-05-13T10:21:03.521Z,12.99
2018-05-13T10:26:58.602Z,12.53
2018-05-13T10:32:53.589Z,9.95
2018-05-13T10:38:48.543Z,16.65
2018-05-13T10:44:43.556Z,7.49
2018-05-13T10:50:38.560Z,9.96
2018-05-13T10:56:33.584Z,7.89
2018-05-13T11:02:28.606Z,7.53
2018-05-13T11:08:23.605Z,6.03
2018-05-13T11:14:18.584Z,7.1
2018-05-13T11:20:13.601Z,6.27
2018-05-13T11:26:08.595Z,6.11
2018-05-13T11:32:03.556Z,6.22
2018-05-13T11:37:58.691Z,4.44
2018-05-13T11:43:53.609Z,5.09
2018-05-13T11:49:48.575Z,5.19
2018-05-13T11:55:43.583Z,6.16
2018-05-13T12:01:38.582Z,4.77
2018-05-13T12:07:33.587Z,5.66
2018-05-13T12:13:28.641Z,5.41
2018-05-13T12:19:23.619Z,5.27
2018-05-13T12:26:26.823Z,4.9
2018-05-13T12:31:13.583Z,4.67
2018-05-13T12:37:08.595Z,5.95
2018-05-13T12:43:03.622Z,4.76
2018-05-13T12:48:58.622Z,4.57
2018-05-13T12:54:53.630Z,4.61
2018-05-13T13:00:48.640Z,5.89
2018-05-13T13:06:43.636Z,5.39
2018-05-13T13:12:38.653Z,4.36
2018-05-13T13:18:33.610Z,4.56
2018-05-13T13:24:28.654Z,4.81
2018-05-13T13:30:23.706Z,5.31
2018-05-13T13:36:18.676Z,7.26
2018-05-13T13:42:13.652Z,6.35
2018-05-13T13:48:08.667Z,5.78
2018-05-13T13:54:03.648Z,5.59
2018-05-13T13:59:58.633Z,4.92
2018-05-13T14:05:53.650Z,4.44
2018-05-13T14:11:48.657Z,5.2
2018-05-13T14:17:43.692Z,6.43
2018-05-13T14:23:38.686Z,6.74
2018-05-13T14:29:33.682Z,5.97
2018-05-13T14:35:28.708Z,5.1
2018-05-13T14:41:23.712Z,6.12
2018-05-13T14:47:18.691Z,6.22
2018-05-13T14:53:13.673Z,5.69
2018-05-13T14:59:08.715Z,8.44
2018-05-13T15:05:03.819Z,4.98
2018-05-13T15:10:58.666Z,4.64
2018-05-13T15:16:53.723Z,3.96
2018-05-13T15:22:48.724Z,3.7
2018-05-13T15:28:43.747Z,3.62
2018-05-13T15:34:38.744Z,3.68
2018-05-13T15:40:33.726Z,4.83
2018-05-13T15:46:28.719Z,4.07
2018-05-13T15:52:23.778Z,4.65
2018-05-13T15:58:18.780Z,4.53
2018-05-13T16:04:13.731Z,3.77
2018-05-13T16:10:08.758Z,4.36
2018-05-13T16:16:03.725Z,7.04
2018-05-13T16:21:58.740Z,4.62
2018-05-13T16:27:53.786Z,4.35
2018-05-13T16:33:48.744Z,4.61
2018-05-13T16:39:43.728Z,5.26
2018-05-13T16:45:38.758Z,6.77
2018-05-13T16:51:33.776Z,5.43
2018-05-13T16:57:28.758Z,4.14
2018-05-13T17:03:23.852Z,4.97
2018-05-13T17:09:18.780Z,4.42
2018-05-13T17:15:13.793Z,4.15
2018-05-13T17:21:08.751Z,4.42
2018-05-13T17:27:03.794Z,4.79
2018-05-13T17:32:58.773Z,5.42
2018-05-13T17:38:53.758Z,4.61
2018-05-13T17:44:48.760Z,5.55
2018-05-13T17:50:43.808Z,7.54
2018-05-13T17:56:38.772Z,4.58
2018-05-13T18:02:33.780Z,6.18
2018-05-13T18:08:28.772Z,5.33
2018-05-13T18:14:23.799Z,7.36
2018-05-13T18:20:18.798Z,5.47
2018-05-13T18:26:13.779Z,5.66
2018-05-13T18:32:08.839Z,5.46
2018-05-13T18:38:03.833Z,4.65
2018-05-13T18:43:58.785Z,4.41
2018-05-13T18:49:53.811Z,5.62
2018-05-13T18:55:48.872Z,7.05
2018-05-13T19:01:43.837Z,10.08
2018-05-13T19:07:38.842Z,7.09
2018-05-13T19:13:33.839Z,3.4
2018-05-13T19:19:28.824Z,2.53
2018-05-13T19:25:23.836Z,3.47
2018-05-13T19:31:18.872Z,3.7
2018-05-13T19:37:13.850Z,3.44
2018-05-13T19:43:08.851Z,2.57
2018-05-13T19:49:03.845Z,3.51
2018-05-13T19:54:58.895Z,2.36
2018-05-13T20:00:53.859Z,2.28
2018-05-13T20:06:48.901Z,2.46
2018-05-13T20:12:43.862Z,3.65
2018-05-13T20:18:38.853Z,2.56
2018-05-13T20:24:33.855Z,2.8
2018-05-13T20:30:28.943Z,2.95
2018-05-13T20:36:23.878Z,3.31
2018-05-13T20:42:18.867Z,2.9
2018-05-13T20:48:13.908Z,2.78
2018-05-13T20:54:08.863Z,2.14
2018-05-13T21:00:04.229Z,2.86
2018-05-13T21:05:58.911Z,2.32
2018-05-13T21:11:53.919Z,2.39
2018-05-13T21:17:48.914Z,3.13
2018-05-13T21:23:43.943Z,2.94
2018-05-13T21:29:38.923Z,3.07
2018-05-13T21:35:33.911Z,2.53
2018-05-13T21:41:28.905Z,2.85
2018-05-13T21:47:23.996Z,2.74
2018-05-13T21:53:18.897Z,2.88
2018-05-13T21:59:13.910Z,2.9
2018-05-13T22:05:08.930Z,2.82
2018-05-13T22:11:03.936Z,2.58
2018-05-13T22:16:58.929Z,2.83
2018-05-13T22:22:53.971Z,4.78
2018-05-13T22:28:48.953Z,3.11
2018-05-13T22:34:44.035Z,3.23
2018-05-13T22:40:38.970Z,3.13
2018-05-13T22:46:33.960Z,2.42
2018-05-13T22:52:29.015Z,2.79
2018-05-13T22:58:23.984Z,5.07
2018-05-13T23:04:18.946Z,3.81
2018-05-13T23:10:13.964Z,4.31
2018-05-13T23:16:08.947Z,5.4
2018-05-13T23:22:03.990Z,3.58
2018-05-13T23:27:58.950Z,3.61
2018-05-13T23:33:53.953Z,3.43
2018-05-13T23:39:48.958Z,2.4
2018-05-13T23:45:44.000Z,3.04
2018-05-13T23:51:38.970Z,3.25
2018-05-13T23:57:34.020Z,3.14
